createdAt,value
2023-03-17T00:01:56.853Z,100729.47
2023-03-17T00:04:27.331Z,100735.59
2023-03-17T00:06:55.136Z,100732.97
2023-03-17T00:09:22.789Z,100738.22
2023-03-17T00:11:50.848Z,100737.34
2023-03-17T00:14:19.771Z,100739.06
2023-03-17T00:16:52.763Z,100745.13
2023-03-17T00:19:32.221Z,100739.88
2023-03-17T00:22:01.386Z,100743.28
2023-03-17T00:24:29.632Z,100740.72
2023-03-17T00:26:56.665Z,100742.41
2023-03-17T00:29:25.381Z,100752.00
2023-03-17T00:31:53.566Z,100748.50
2023-03-17T00:34:23.425Z,100756.41
2023-03-17T00:36:51.419Z,100754.72
2023-03-17T00:39:19.690Z,100748.69
2023-03-17T00:41:50.154Z,100748.75
2023-03-17T00:44:17.539Z,100737.47
2023-03-17T00:46:44.794Z,100743.66
2023-03-17T00:49:23.920Z,100728.88
2023-03-17T00:51:51.545Z,100713.16
2023-03-17T00:54:20.789Z,100710.56
2023-03-17T00:56:51.022Z,100712.34
2023-03-17T00:59:26.231Z,100717.56
2023-03-17T01:01:54.156Z,100711.50
2023-03-17T01:04:22.049Z,100708.00
2023-03-17T01:06:50.349Z,100702.78
2023-03-17T01:09:25.901Z,100704.53
2023-03-17T01:11:55.121Z,100701.06
2023-03-17T01:14:23.174Z,100704.53
2023-03-17T01:16:50.528Z,100694.13
2023-03-17T01:19:17.980Z,100692.34
2023-03-17T01:21:46.480Z,100691.50
2023-03-17T01:24:15.047Z,100692.41
2023-03-17T01:26:42.071Z,100694.22
2023-03-17T01:29:09.227Z,100697.78
2023-03-17T01:31:36.389Z,100712.66
2023-03-17T01:34:06.234Z,100709.19
2023-03-17T01:36:34.366Z,100705.72
2023-03-17T01:39:01.777Z,100700.44
2023-03-17T01:41:28.740Z,100691.69
2023-03-17T01:43:55.732Z,100689.94
2023-03-17T01:46:36.115Z,100682.94
2023-03-17T01:49:31.923Z,100688.19
2023-03-17T01:52:07.506Z,100679.47
2023-03-17T01:54:46.141Z,100676.00
2023-03-17T01:57:28.656Z,100675.19
2023-03-17T02:00:19.756Z,100678.72
2023-03-17T02:02:51.651Z,100670.88
2023-03-17T02:05:25.960Z,100677.81
2023-03-17T02:07:55.592Z,100672.59
2023-03-17T02:10:29.826Z,100669.97
2023-03-17T02:13:02.768Z,100663.03
2023-03-17T02:15:46.592Z,100663.06
2023-03-17T02:18:15.271Z,100664.09
2023-03-17T02:20:47.940Z,100667.69
2023-03-17T02:23:22.880Z,100657.38
2023-03-17T02:25:53.683Z,100669.63
2023-03-17T02:28:29.207Z,100660.97
2023-03-17T02:30:57.331Z,100668.91
2023-03-17T02:33:24.387Z,100660.19
2023-03-17T02:35:55.180Z,100662.81
2023-03-17T02:38:22.181Z,100668.06
2023-03-17T02:40:49.334Z,100661.16
2023-03-17T02:43:16.774Z,100656.81
2023-03-17T02:45:43.859Z,100652.41
2023-03-17T02:48:12.220Z,100649.78
2023-03-17T02:50:39.314Z,100651.44
2023-03-17T02:53:07.582Z,100647.06
2023-03-17T02:55:34.828Z,100645.25
2023-03-17T02:58:03.434Z,100640.81
2023-03-17T03:00:30.973Z,100637.28
2023-03-17T03:02:58.149Z,100639.88
2023-03-17T03:05:25.380Z,100632.84
2023-03-17T03:07:52.758Z,100638.94
2023-03-17T03:10:19.942Z,100645.06
2023-03-17T03:12:47.289Z,100645.91
2023-03-17T03:15:14.607Z,100647.69
2023-03-17T03:17:42.072Z,100638.09
2023-03-17T03:20:11.583Z,100633.78
2023-03-17T03:22:39.006Z,100635.56
2023-03-17T03:25:08.781Z,100638.19
2023-03-17T03:27:36.065Z,100636.44
2023-03-17T03:30:04.443Z,100629.50
2023-03-17T03:32:31.600Z,100626.84
2023-03-17T03:34:58.650Z,100630.34
2023-03-17T03:37:26.035Z,100636.44
2023-03-17T03:39:53.122Z,100639.94
2023-03-17T03:42:20.156Z,100637.38
2023-03-17T03:44:47.106Z,100633.91
2023-03-17T03:47:14.107Z,100636.53
2023-03-17T03:49:41.168Z,100621.72
2023-03-17T03:52:08.835Z,100622.59
2023-03-17T03:54:35.882Z,100633.09
2023-03-17T03:57:02.911Z,100647.09
2023-03-17T03:59:30.647Z,100641.91
2023-03-17T04:01:57.615Z,100642.81
2023-03-17T04:04:24.615Z,100655.13
2023-03-17T04:06:51.567Z,100658.69
2023-03-17T04:09:18.636Z,100651.72
2023-03-17T04:11:45.941Z,100650.03
2023-03-17T04:14:13.288Z,100662.28
2023-03-17T04:16:43.263Z,100656.19
2023-03-17T04:19:11.253Z,100660.63
2023-03-17T04:21:38.282Z,100669.41
2023-03-17T04:24:05.939Z,100667.72
2023-03-17T04:26:32.922Z,100661.63
2023-03-17T04:29:00.160Z,100668.63
2023-03-17T04:31:27.487Z,100666.06
2023-03-17T04:33:54.622Z,100660.00
2023-03-17T04:36:23.885Z,100650.44
2023-03-17T04:38:51.017Z,100661.88
2023-03-17T04:41:18.086Z,100659.28
2023-03-17T04:43:45.524Z,100660.22
2023-03-17T04:46:13.859Z,100664.63
2023-03-17T04:48:41.412Z,100662.03
2023-03-17T04:51:10.404Z,100660.31
2023-03-17T04:53:38.762Z,100662.09
2023-03-17T04:56:06.513Z,100661.19
2023-03-17T04:58:33.506Z,100671.72
2023-03-17T05:01:02.424Z,100677.78
2023-03-17T05:03:31.039Z,100676.03
2023-03-17T05:05:59.196Z,100677.75
2023-03-17T05:08:28.342Z,100676.88
2023-03-17T05:10:57.271Z,100665.53
2023-03-17T05:13:26.385Z,100659.41
2023-03-17T05:15:55.668Z,100661.09
2023-03-17T05:18:25.548Z,100662.84
2023-03-17T05:20:53.150Z,100661.06
2023-03-17T05:23:20.748Z,100661.06
2023-03-17T05:25:48.912Z,100663.72
2023-03-17T05:28:16.082Z,100658.50
2023-03-17T05:30:43.577Z,100649.78
2023-03-17T05:33:10.651Z,100648.94
2023-03-17T05:35:37.984Z,100646.34
2023-03-17T05:38:05.007Z,100648.97
2023-03-17T05:40:32.705Z,100646.38
2023-03-17T05:42:59.902Z,100645.53
2023-03-17T05:45:26.872Z,100645.53
2023-03-17T05:47:54.175Z,100648.16
2023-03-17T05:50:21.595Z,100653.38
2023-03-17T05:52:48.858Z,100660.34
2023-03-17T05:55:16.139Z,100655.94
2023-03-17T05:57:43.200Z,100661.97
2023-03-17T06:00:13.190Z,100656.72
2023-03-17T06:02:40.413Z,100648.72
2023-03-17T06:05:08.835Z,100648.53
2023-03-17T06:07:50.876Z,100646.56
2023-03-17T06:10:20.577Z,100656.06
2023-03-17T06:12:47.668Z,100655.13
2023-03-17T06:15:17.004Z,100659.31
2023-03-17T06:17:44.496Z,100652.25
2023-03-17T06:20:13.085Z,100651.28
2023-03-17T06:22:51.710Z,100654.56
2023-03-17T06:25:27.941Z,100656.13
2023-03-17T06:27:56.147Z,100655.25
2023-03-17T06:30:23.197Z,100657.91
2023-03-17T06:32:50.377Z,100662.34
2023-03-17T06:35:18.138Z,100658.88
2023-03-17T06:37:45.238Z,100661.56
2023-03-17T06:40:13.334Z,100659.75
2023-03-17T06:42:40.418Z,100658.81
2023-03-17T06:45:09.384Z,100663.06
2023-03-17T06:47:37.320Z,100653.34
2023-03-17T06:50:05.593Z,100661.03
2023-03-17T06:52:32.530Z,100656.53
2023-03-17T06:54:59.515Z,100659.88
2023-03-17T06:57:26.982Z,100660.66
2023-03-17T06:59:54.304Z,100664.03
2023-03-17T07:02:21.339Z,100650.81
2023-03-17T07:04:48.662Z,100647.19
2023-03-17T07:07:16.285Z,100641.81
2023-03-17T07:09:43.293Z,100632.94
2023-03-17T07:12:10.488Z,100634.56
2023-03-17T07:14:37.878Z,100634.41
2023-03-17T07:17:06.737Z,100647.28
2023-03-17T07:19:35.124Z,100645.34
2023-03-17T07:22:02.236Z,100642.50
2023-03-17T07:24:29.238Z,100657.19
2023-03-17T07:26:56.232Z,100655.28
2023-03-17T07:29:23.421Z,100660.31
2023-03-17T07:31:50.696Z,100656.63
2023-03-17T07:34:17.907Z,100655.53
2023-03-17T07:36:44.946Z,100653.63
2023-03-17T07:39:12.765Z,100654.28
2023-03-17T07:41:39.846Z,100654.13
2023-03-17T07:44:11.402Z,100649.59
2023-03-17T07:46:39.011Z,100648.47
2023-03-17T07:49:06.295Z,100648.25
2023-03-17T07:51:33.401Z,100655.97
2023-03-17T07:54:03.991Z,100641.78
2023-03-17T07:56:32.696Z,100643.31
2023-03-17T07:59:00.124Z,100640.50
2023-03-17T08:01:28.091Z,100643.00
2023-03-17T08:03:56.468Z,100646.41
2023-03-17T08:06:27.147Z,100640.13
2023-03-17T08:08:55.311Z,100647.03
2023-03-17T08:11:23.390Z,100646.94
2023-03-17T08:13:50.992Z,100651.06
2023-03-17T08:16:18.096Z,100650.91
2023-03-17T08:18:45.170Z,100641.97
2023-03-17T08:21:14.095Z,100644.47
2023-03-17T08:23:43.142Z,100656.72
2023-03-17T08:26:10.353Z,100651.31
2023-03-17T08:28:37.595Z,100652.03
2023-03-17T08:31:17.411Z,100642.31
2023-03-17T08:33:52.472Z,100654.50
2023-03-17T08:36:20.973Z,100648.19
2023-03-17T08:38:48.588Z,100640.06
2023-03-17T08:41:23.736Z,100646.84
2023-03-17T08:43:51.717Z,100650.06
2023-03-17T08:46:32.243Z,100642.63
2023-03-17T08:49:00.885Z,100641.41
2023-03-17T08:51:34.673Z,100630.53
2023-03-17T08:54:03.494Z,100633.66
2023-03-17T08:56:30.514Z,100640.28
2023-03-17T08:58:57.452Z,100637.22
2023-03-17T09:01:24.878Z,100638.66
2023-03-17T09:03:55.090Z,100634.59
2023-03-17T09:06:22.962Z,100621.72
2023-03-17T09:08:55.346Z,100617.59
2023-03-17T09:11:29.680Z,100610.06
2023-03-17T09:13:57.015Z,100615.72
2023-03-17T09:16:25.414Z,100617.91
2023-03-17T09:18:53.131Z,100624.50
2023-03-17T09:21:21.229Z,100627.59
2023-03-17T09:23:48.384Z,100630.72
2023-03-17T09:26:15.698Z,100630.19
2023-03-17T09:28:42.883Z,100647.41
2023-03-17T09:31:12.464Z,100636.28
2023-03-17T09:33:41.615Z,100644.75
2023-03-17T09:36:10.728Z,100632.84
2023-03-17T09:38:38.957Z,100629.00
2023-03-17T09:41:23.544Z,100634.84
2023-03-17T09:44:28.867Z,100635.56
2023-03-17T09:47:46.137Z,100639.25
2023-03-17T09:50:28.435Z,100631.34
2023-03-17T09:52:58.443Z,100628.91
2023-03-17T09:55:31.715Z,100636.88
2023-03-17T09:58:00.800Z,100634.50
2023-03-17T10:00:31.108Z,100637.41
2023-03-17T10:02:59.783Z,100628.81
2023-03-17T10:05:32.012Z,100620.34
2023-03-17T10:08:30.728Z,100617.25
2023-03-17T10:11:28.487Z,100613.44
2023-03-17T10:14:04.846Z,100626.53
2023-03-17T10:16:41.476Z,100625.06
2023-03-17T10:19:35.275Z,100622.22
2023-03-17T10:22:28.629Z,100606.56
2023-03-17T10:25:04.333Z,100611.38
2023-03-17T10:27:37.356Z,100615.69
2023-03-17T10:30:15.232Z,100616.31
2023-03-17T10:32:43.541Z,100617.53
2023-03-17T10:35:12.408Z,100615.56
2023-03-17T10:37:39.944Z,100626.09
2023-03-17T10:40:20.736Z,100623.88
2023-03-17T10:42:54.847Z,100622.56
2023-03-17T10:45:29.672Z,100620.00
2023-03-17T10:48:00.079Z,100608.66
2023-03-17T10:50:39.961Z,100617.28
2023-03-17T10:53:10.816Z,100609.22
2023-03-17T10:55:37.759Z,100602.34
2023-03-17T10:58:17.213Z,100601.88
2023-03-17T11:01:23.088Z,100592.63
2023-03-17T11:03:50.766Z,100591.88
2023-03-17T11:06:30.706Z,100578.19
2023-03-17T11:09:09.568Z,100575.09
2023-03-17T11:11:46.498Z,100578.22
2023-03-17T11:14:18.560Z,100585.19
2023-03-17T11:16:57.562Z,100597.09
2023-03-17T11:20:05.783Z,100608.03
2023-03-17T11:22:46.489Z,100612.31
2023-03-17T11:25:19.641Z,100605.56
2023-03-17T11:28:05.645Z,100603.72
2023-03-17T11:30:39.749Z,100608.75
2023-03-17T11:33:34.664Z,100602.00
2023-03-17T11:36:27.072Z,100604.78
2023-03-17T11:38:59.698Z,100578.22
2023-03-17T11:41:51.021Z,100562.91
2023-03-17T11:44:49.063Z,100562.94
2023-03-17T11:47:38.524Z,100567.19
2023-03-17T11:50:30.649Z,100578.34
2023-03-17T11:53:20.597Z,100589.66
2023-03-17T11:56:00.213Z,100583.50
2023-03-17T11:58:39.910Z,100598.72
2023-03-17T12:01:14.120Z,100584.28
2023-03-17T12:03:54.337Z,100584.84
2023-03-17T12:06:36.790Z,100580.16
2023-03-17T12:09:32.422Z,100567.31
2023-03-17T12:12:03.120Z,100560.81
2023-03-17T12:14:46.432Z,100563.94
2023-03-17T12:17:33.118Z,100555.88
2023-03-17T12:20:32.867Z,100554.94
2023-03-17T12:23:16.501Z,100559.94
2023-03-17T12:26:02.592Z,100549.91
2023-03-17T12:28:40.913Z,100552.06
2023-03-17T12:31:17.443Z,100551.22
2023-03-17T12:34:28.542Z,100548.13
2023-03-17T12:36:56.123Z,100559.09
2023-03-17T12:39:37.482Z,100555.22
2023-03-17T12:42:19.642Z,100548.13
2023-03-17T12:45:04.835Z,100552.50
2023-03-17T12:48:24.930Z,100552.94
2023-03-17T12:51:31.142Z,100549.22
2023-03-17T12:54:00.202Z,100552.06
2023-03-17T12:56:36.693Z,100554.03
2023-03-17T12:59:14.687Z,100554.03
2023-03-17T13:02:15.554Z,100548.47
2023-03-17T13:05:00.648Z,100535.53
2023-03-17T13:07:45.421Z,100537.41
2023-03-17T13:10:20.042Z,100535.34
2023-03-17T13:12:46.936Z,100533.66
2023-03-17T13:15:23.504Z,100527.59
2023-03-17T13:18:16.612Z,100525.41
2023-03-17T13:20:57.470Z,100517.28
2023-03-17T13:23:37.512Z,100514.34
2023-03-17T13:26:04.522Z,100517.03
2023-03-17T13:28:34.926Z,100512.28
2023-03-17T13:31:14.240Z,100510.25
2023-03-17T13:33:52.076Z,100514.63
2023-03-17T13:36:34.091Z,100521.69
2023-03-17T13:39:37.835Z,100507.47
2023-03-17T13:42:18.647Z,100518.50
2023-03-17T13:45:10.875Z,100511.31
2023-03-17T13:47:43.416Z,100512.94
2023-03-17T13:50:30.045Z,100516.09
2023-03-17T13:53:10.507Z,100509.66
2023-03-17T13:55:41.896Z,100506.25
2023-03-17T13:58:11.402Z,100502.72
2023-03-17T14:00:49.078Z,100500.88
2023-03-17T14:03:35.177Z,100501.59
2023-03-17T14:06:08.145Z,100502.81
2023-03-17T14:08:47.788Z,100499.75
2023-03-17T14:11:39.277Z,100501.66
2023-03-17T14:14:41.374Z,100496.84
2023-03-17T14:17:41.711Z,100499.53
2023-03-17T14:20:18.409Z,100492.59
2023-03-17T14:22:53.856Z,100495.50
2023-03-17T14:25:26.459Z,100490.41
2023-03-17T14:27:57.732Z,100490.88
2023-03-17T14:30:34.650Z,100478.38
2023-03-17T14:33:06.599Z,100473.78
2023-03-17T14:35:39.236Z,100466.41
2023-03-17T14:38:28.362Z,100460.31
2023-03-17T14:41:27.869Z,100467.91
2023-03-17T14:44:00.285Z,100464.09
2023-03-17T14:46:40.284Z,100459.97
2023-03-17T14:49:19.211Z,100470.88
2023-03-17T14:51:51.300Z,100464.78
2023-03-17T14:54:31.361Z,100467.81
2023-03-17T14:57:07.285Z,100473.75
2023-03-17T14:59:38.698Z,100462.03
2023-03-17T15:02:35.912Z,100441.19
2023-03-17T15:05:43.230Z,100447.09
2023-03-17T15:08:40.899Z,100439.88
2023-03-17T15:11:14.656Z,100444.91
2023-03-17T15:13:41.934Z,100442.69
2023-03-17T15:16:22.743Z,100450.06
2023-03-17T15:19:16.725Z,100450.25
2023-03-17T15:21:43.782Z,100447.47
2023-03-17T15:24:40.552Z,100445.47
2023-03-17T15:27:18.798Z,100450.81
2023-03-17T15:29:47.423Z,100444.72
2023-03-17T15:32:24.819Z,100444.28
2023-03-17T15:34:56.910Z,100440.09
2023-03-17T15:37:29.458Z,100436.38
2023-03-17T15:39:58.016Z,100433.19
2023-03-17T15:42:30.695Z,100445.28
2023-03-17T15:45:00.073Z,100446.66
2023-03-17T15:47:31.500Z,100441.63
2023-03-17T15:50:26.502Z,100449.97
2023-03-17T15:52:55.611Z,100446.78
2023-03-17T15:55:29.760Z,100438.97
2023-03-17T15:57:58.576Z,100436.63
2023-03-17T16:00:29.577Z,100453.72
2023-03-17T16:03:02.682Z,100438.78
2023-03-17T16:05:33.747Z,100437.06
2023-03-17T16:08:00.753Z,100441.78
2023-03-17T16:10:32.329Z,100442.72
2023-03-17T16:12:59.504Z,100440.47
2023-03-17T16:15:31.371Z,100449.22
2023-03-17T16:18:02.142Z,100438.50
2023-03-17T16:20:40.048Z,100447.75
2023-03-17T16:23:17.650Z,100445.03
2023-03-17T16:25:46.634Z,100449.50
2023-03-17T16:28:32.321Z,100450.28
2023-03-17T16:31:01.880Z,100459.94
2023-03-17T16:33:38.069Z,100458.84
2023-03-17T16:36:05.385Z,100454.28
2023-03-17T16:38:34.134Z,100446.88
2023-03-17T16:41:16.710Z,100452.00
2023-03-17T16:43:46.471Z,100457.03
2023-03-17T16:46:13.680Z,100447.91
2023-03-17T16:48:40.685Z,100455.63
2023-03-17T16:51:07.639Z,100458.75
2023-03-17T16:53:35.931Z,100455.59
2023-03-17T16:56:03.248Z,100455.34
2023-03-17T16:58:36.775Z,100452.28
2023-03-17T17:01:22.344Z,100458.91
2023-03-17T17:03:50.196Z,100454.91
2023-03-17T17:06:20.288Z,100464.09
2023-03-17T17:08:49.391Z,100458.22
2023-03-17T17:11:19.657Z,100457.63
2023-03-17T17:13:49.231Z,100458.94
2023-03-17T17:16:26.981Z,100466.31
2023-03-17T17:18:54.731Z,100456.97
2023-03-17T17:21:21.917Z,100461.66
2023-03-17T17:23:50.525Z,100459.28
2023-03-17T17:26:18.524Z,100457.00
2023-03-17T17:28:45.562Z,100470.63
2023-03-17T17:31:14.037Z,100464.81
2023-03-17T17:33:41.067Z,100469.59
2023-03-17T17:36:15.170Z,100467.38
2023-03-17T17:38:42.892Z,100477.66
2023-03-17T17:41:12.893Z,100485.81
2023-03-17T17:43:41.159Z,100488.81
2023-03-17T17:46:19.147Z,100489.06
2023-03-17T17:48:47.880Z,100498.13
2023-03-17T17:51:14.922Z,100491.19
2023-03-17T17:53:41.965Z,100485.19
2023-03-17T17:56:17.813Z,100487.13
2023-03-17T17:58:45.785Z,100490.91
2023-03-17T18:01:13.910Z,100496.47
2023-03-17T18:03:42.852Z,100498.44
2023-03-17T18:06:13.025Z,100502.09
2023-03-17T18:08:41.161Z,100510.22
2023-03-17T18:11:08.687Z,100510.53
2023-03-17T18:13:36.195Z,100513.50
2023-03-17T18:16:04.045Z,100513.84
2023-03-17T18:18:32.564Z,100516.94
2023-03-17T18:20:59.852Z,100516.41
2023-03-17T18:23:27.433Z,100522.81
2023-03-17T18:26:02.038Z,100523.88
2023-03-17T18:28:29.381Z,100522.41
2023-03-17T18:31:06.898Z,100530.53
2023-03-17T18:33:34.081Z,100524.59
2023-03-17T18:36:01.468Z,100517.81
2023-03-17T18:38:28.620Z,100521.47
2023-03-17T18:40:55.552Z,100528.72
2023-03-17T18:43:22.526Z,100527.09
2023-03-17T18:45:49.587Z,100521.84
2023-03-17T18:48:16.550Z,100527.09
2023-03-17T18:50:43.467Z,100531.53
2023-03-17T18:53:10.374Z,100536.81
2023-03-17T18:55:37.259Z,100536.13
2023-03-17T18:58:04.322Z,100540.72
2023-03-17T19:00:31.528Z,100540.94
2023-03-17T19:02:58.646Z,100540.25
2023-03-17T19:05:25.932Z,100547.53
2023-03-17T19:07:52.816Z,100541.63
2023-03-17T19:10:20.018Z,100543.63
2023-03-17T19:12:47.335Z,100542.06
2023-03-17T19:15:14.663Z,100539.66
2023-03-17T19:17:42.967Z,100537.22
2023-03-17T19:20:10.880Z,100537.38
2023-03-17T19:22:37.930Z,100530.47
2023-03-17T19:25:06.274Z,100535.94
2023-03-17T19:27:33.193Z,100530.78
2023-03-17T19:30:00.195Z,100535.28
2023-03-17T19:32:27.471Z,100545.16
2023-03-17T19:34:54.443Z,100537.38
2023-03-17T19:37:21.389Z,100543.72
2023-03-17T19:39:48.447Z,100550.06
2023-03-17T19:42:16.139Z,100546.78
2023-03-17T19:44:43.129Z,100551.38
2023-03-17T19:47:10.037Z,100545.50
2023-03-17T19:49:38.302Z,100545.72
2023-03-17T19:52:07.580Z,100540.63
2023-03-17T19:54:37.602Z,100546.97
2023-03-17T19:57:05.267Z,100548.97
2023-03-17T19:59:32.161Z,100542.19
2023-03-17T20:01:59.158Z,100552.91
2023-03-17T20:04:26.218Z,100552.03
2023-03-17T20:06:56.870Z,100550.25
2023-03-17T20:09:26.198Z,100549.16
2023-03-17T20:11:56.088Z,100555.22
2023-03-17T20:14:23.538Z,100549.75
2023-03-17T20:16:51.942Z,100561.94
2023-03-17T20:19:19.333Z,100561.84
2023-03-17T20:21:46.290Z,100556.44
2023-03-17T20:24:14.630Z,100551.94
2023-03-17T20:26:45.737Z,100552.72
2023-03-17T20:29:14.250Z,100555.38
2023-03-17T20:31:42.177Z,100561.44
2023-03-17T20:34:10.676Z,100567.59
2023-03-17T20:36:42.112Z,100564.06
2023-03-17T20:39:13.761Z,100571.09
2023-03-17T20:41:41.304Z,100574.63
2023-03-17T20:44:08.673Z,100579.91
2023-03-17T20:46:35.793Z,100579.91
2023-03-17T20:49:04.046Z,100588.69
2023-03-17T20:51:32.346Z,100578.19
2023-03-17T20:54:02.454Z,100577.31
2023-03-17T20:56:31.354Z,100585.25
2023-03-17T20:58:58.615Z,100593.19
2023-03-17T21:01:26.632Z,100601.09
2023-03-17T21:03:53.846Z,100601.09
2023-03-17T21:06:21.159Z,100598.44
2023-03-17T21:08:48.158Z,100600.16
2023-03-17T21:11:19.473Z,100604.50
2023-03-17T21:13:47.063Z,100598.44
2023-03-17T21:16:25.102Z,100592.25
2023-03-17T21:18:55.745Z,100596.72
2023-03-17T21:21:24.684Z,100598.47
2023-03-17T21:23:51.688Z,100599.41
2023-03-17T21:26:19.443Z,100602.94
2023-03-17T21:28:47.580Z,100602.00
2023-03-17T21:31:15.970Z,100595.06
2023-03-17T21:33:43.926Z,100598.66
2023-03-17T21:36:11.203Z,100594.28
2023-03-17T21:38:38.087Z,100601.34
2023-03-17T21:41:34.005Z,100595.13
2023-03-17T21:44:03.097Z,100596.13
2023-03-17T21:46:31.714Z,100593.47
2023-03-17T21:48:59.134Z,100593.47
2023-03-17T21:51:27.266Z,100590.84
2023-03-17T21:53:54.285Z,100595.25
2023-03-17T21:56:21.522Z,100584.66
2023-03-17T21:58:49.024Z,100593.56
2023-03-17T22:01:17.968Z,100593.56
2023-03-17T22:03:45.098Z,100591.84
2023-03-17T22:06:13.884Z,100588.31
2023-03-17T22:08:41.387Z,100590.13
2023-03-17T22:11:12.092Z,100598.09
2023-03-17T22:13:40.107Z,100591.97
2023-03-17T22:16:12.107Z,100597.25
2023-03-17T22:18:40.133Z,100597.25
2023-03-17T22:21:10.827Z,100600.75
2023-03-17T22:23:42.234Z,100613.06
2023-03-17T22:26:13.436Z,100610.34
2023-03-17T22:28:43.105Z,100609.44
2023-03-17T22:31:22.913Z,100603.97
2023-03-17T22:33:54.987Z,100607.44
2023-03-17T22:36:23.936Z,100610.88
2023-03-17T22:38:51.388Z,100606.44
2023-03-17T22:41:23.248Z,100609.94
2023-03-17T22:43:51.363Z,100609.16
2023-03-17T22:46:19.909Z,100609.28
2023-03-17T22:48:47.199Z,100611.09
2023-03-17T22:51:22.044Z,100615.69
2023-03-17T22:53:51.044Z,100614.13
2023-03-17T22:56:19.530Z,100614.38
2023-03-17T22:58:47.472Z,100619.88
2023-03-17T23:01:17.025Z,100623.53
2023-03-17T23:03:45.113Z,100616.59
2023-03-17T23:06:13.256Z,100617.59
2023-03-17T23:08:42.727Z,100630.00
2023-03-17T23:11:18.262Z,100637.06
2023-03-17T23:13:47.347Z,100637.16
2023-03-17T23:16:15.217Z,100631.84
2023-03-17T23:18:46.119Z,100633.47
2023-03-17T23:21:35.823Z,100644.78
2023-03-17T23:24:03.920Z,100641.19
2023-03-17T23:26:32.110Z,100640.19
2023-03-17T23:28:59.074Z,100640.28
2023-03-17T23:31:26.199Z,100646.50
2023-03-17T23:33:53.689Z,100648.34
2023-03-17T23:36:21.344Z,100649.34
2023-03-17T23:38:48.759Z,100650.25
2023-03-17T23:41:17.453Z,100646.81
2023-03-17T23:43:46.552Z,100645.16
2023-03-17T23:46:14.696Z,100636.44
2023-03-17T23:48:42.880Z,100656.72
2023-03-17T23:51:12.423Z,100650.66
2023-03-17T23:53:40.167Z,100642.03
2023-03-17T23:56:08.226Z,100644.78
2023-03-17T23:58:36.155Z,100643.34
